sensor_id;sensor_type;location;lat;lon;timestamp;pressure;altitude;pressure_sealevel;temperature;humidity
29535;BME280;72082;52.650;8.116;2024-02-21T00:01:22;101767.88;;;8.94;100.00
29535;BME280;72082;52.650;8.116;2024-02-21T00:03:48;101777.25;;;8.93;100.00
29535;BME280;72082;52.650;8.116;2024-02-21T00:06:13;101761.06;;;8.94;100.00
29535;BME280;72082;52.650;8.116;2024-02-21T00:08:39;101763.59;;;8.94;100.00
29535;BME280;72082;52.650;8.116;2024-02-21T00:11:04;101768.72;;;8.94;100.00
29535;BME280;72082;52.650;8.116;2024-02-21T00:13:29;101761.91;;;8.95;100.00
29535;BME280;72082;52.650;8.116;2024-02-21T00:15:55;101764.47;;;8.95;100.00
29535;BME280;72082;52.650;8.116;2024-02-21T00:18:20;101748.28;;;8.94;100.00
29535;BME280;72082;52.650;8.116;2024-02-21T00:20:45;101755.13;;;8.95;100.00
29535;BME280;72082;52.650;8.116;2024-02-21T00:23:11;101744.03;;;8.95;100.00
29535;BME280;72082;52.650;8.116;2024-02-21T00:25:36;101749.19;;;8.96;100.00
29535;BME280;72082;52.650;8.116;2024-02-21T00:28:01;101736.41;;;8.96;100.00
29535;BME280;72082;52.650;8.116;2024-02-21T00:30:26;101739.84;;;8.97;100.00
29535;BME280;72082;52.650;8.116;2024-02-21T00:32:52;101730.50;;;8.99;100.00
29535;BME280;72082;52.650;8.116;2024-02-21T00:35:17;101739.88;;;9.00;100.00
29535;BME280;72082;52.650;8.116;2024-02-21T00:37:42;101730.50;;;9.00;100.00
29535;BME280;72082;52.650;8.116;2024-02-21T00:40:08;101739.03;;;9.01;100.00
29535;BME280;72082;52.650;8.116;2024-02-21T00:42:33;101736.50;;;9.01;100.00
29535;BME280;72082;52.650;8.116;2024-02-21T00:44:58;101738.22;;;9.02;100.00
29535;BME280;72082;52.650;8.116;2024-02-21T00:47:23;101728.00;;;9.03;100.00
29535;BME280;72082;52.650;8.116;2024-02-21T00:49:49;101734.88;;;9.04;100.00
29535;BME280;72082;52.650;8.116;2024-02-21T00:52:14;101722.97;;;9.06;100.00
29535;BME280;72082;52.650;8.116;2024-02-21T00:54:39;101728.09;;;9.08;100.00
29535;BME280;72082;52.650;8.116;2024-02-21T00:57:04;101714.50;;;9.09;100.00
29535;BME280;72082;52.650;8.116;2024-02-21T00:59:30;101712.81;;;9.09;100.00
29535;BME280;72082;52.650;8.116;2024-02-21T01:01:55;101723.03;;;9.11;100.00
29535;BME280;72082;52.650;8.116;2024-02-21T01:04:20;101706.88;;;9.12;100.00
29535;BME280;72082;52.650;8.116;2024-02-21T01:06:45;101703.44;;;9.11;100.00
29535;BME280;72082;52.650;8.116;2024-02-21T01:09:11;101701.78;;;9.13;100.00
29535;BME280;72082;52.650;8.116;2024-02-21T01:11:36;101712.88;;;9.14;100.00
29535;BME280;72082;52.650;8.116;2024-02-21T01:14:02;101705.22;;;9.15;100.00
29535;BME280;72082;52.650;8.116;2024-02-21T01:16:27;101701.81;;;9.15;100.00
29535;BME280;72082;52.650;8.116;2024-02-21T01:18:52;101702.66;;;9.15;100.00
29535;BME280;72082;52.650;8.116;2024-02-21T01:21:18;101691.59;;;9.15;100.00
29535;BME280;72082;52.650;8.116;2024-02-21T01:23:43;101697.53;;;9.15;100.00
29535;BME280;72082;52.650;8.116;2024-02-21T01:26:08;101688.19;;;9.14;100.00
29535;BME280;72082;52.650;8.116;2024-02-21T01:28:34;101683.94;;;9.15;100.00
29535;BME280;72082;52.650;8.116;2024-02-21T01:31:00;101680.50;;;9.16;100.00
29535;BME280;72082;52.650;8.116;2024-02-21T01:33:25;101683.94;;;9.16;100.00
29535;BME280;72082;52.650;8.116;2024-02-21T01:35:50;101679.69;;;9.17;100.00
29535;BME280;72082;52.650;8.116;2024-02-21T01:38:15;101675.41;;;9.16;100.00
29535;BME280;72082;52.650;8.116;2024-02-21T01:40:41;101664.34;;;9.17;100.00
29535;BME280;72082;52.650;8.116;2024-02-21T01:43:16;101659.25;;;9.17;100.00
29535;BME280;72082;52.650;8.116;2024-02-21T01:45:41;101656.69;;;9.17;100.00
29535;BME280;72082;52.650;8.116;2024-02-21T01:48:07;101654.13;;;9.17;100.00
29535;BME280;72082;52.650;8.116;2024-02-21T01:50:33;101654.13;;;9.17;100.00
29535;BME280;72082;52.650;8.116;2024-02-21T01:52:58;101649.88;;;9.17;100.00
29535;BME280;72082;52.650;8.116;2024-02-21T01:55:24;101626.00;;;9.17;100.00
29535;BME280;72082;52.650;8.116;2024-02-21T01:57:49;101633.66;;;9.17;100.00
29535;BME280;72082;52.650;8.116;2024-02-21T02:00:15;101614.91;;;9.16;100.00
29535;BME280;72082;52.650;8.116;2024-02-21T02:02:41;101626.88;;;9.17;100.00
29535;BME280;72082;52.650;8.116;2024-02-21T02:05:07;101614.91;;;9.18;100.00
29535;BME280;72082;52.650;8.116;2024-02-21T02:07:33;101602.13;;;9.16;100.00
29535;BME280;72082;52.650;8.116;2024-02-21T02:09:58;101596.13;;;9.16;100.00
29535;BME280;72082;52.650;8.116;2024-02-21T02:12:23;101590.16;;;9.14;100.00
29535;BME280;72082;52.650;8.116;2024-02-21T02:15:00;101595.25;;;9.14;100.00
29535;BME280;72082;52.650;8.116;2024-02-21T02:17:26;101590.13;;;9.12;100.00
29535;BME280;72082;52.650;8.116;2024-02-21T02:19:51;101573.00;;;9.10;100.00
29535;BME280;72082;52.650;8.116;2024-02-21T02:22:22;101578.19;;;9.11;100.00
29535;BME280;72082;52.650;8.116;2024-02-21T02:24:49;101573.94;;;9.12;100.00
29535;BME280;72082;52.650;8.116;2024-02-21T02:27:14;101571.38;;;9.12;100.00
29535;BME280;72082;52.650;8.116;2024-02-21T02:29:39;101559.47;;;9.14;100.00
29535;BME280;72082;52.650;8.116;2024-02-21T02:32:05;101539.84;;;9.13;100.00
29535;BME280;72082;52.650;8.116;2024-02-21T02:34:30;101550.91;;;9.12;100.00
29535;BME280;72082;52.650;8.116;2024-02-21T02:36:55;101565.34;;;9.10;100.00
29535;BME280;72082;52.650;8.116;2024-02-21T02:39:21;101556.03;;;9.12;100.00
29535;BME280;72082;52.650;8.116;2024-02-21T02:41:46;101573.94;;;9.13;100.00
29535;BME280;72082;52.650;8.116;2024-02-21T02:44:11;101562.88;;;9.14;100.00
29535;BME280;72082;52.650;8.116;2024-02-21T02:46:36;101559.47;;;9.15;100.00
29535;BME280;72082;52.650;8.116;2024-02-21T02:49:05;101569.75;;;9.17;100.00
29535;BME280;72082;52.650;8.116;2024-02-21T02:51:30;101567.19;;;9.17;100.00
29535;BME280;72082;52.650;8.116;2024-02-21T02:53:55;101573.16;;;9.17;100.00
29535;BME280;72082;52.650;8.116;2024-02-21T02:56:20;101578.28;;;9.17;100.00
29535;BME280;72082;52.650;8.116;2024-02-21T02:58:46;101568.06;;;9.19;100.00
29535;BME280;72082;52.650;8.116;2024-02-21T03:01:11;101568.06;;;9.19;100.00
29535;BME280;72082;52.650;8.116;2024-02-21T03:03:36;101576.59;;;9.19;100.00
29535;BME280;72082;52.650;8.116;2024-02-21T03:06:01;101573.19;;;9.20;100.00
29535;BME280;72082;52.650;8.116;2024-02-21T03:08:27;101571.50;;;9.21;100.00
29535;BME280;72082;52.650;8.116;2024-02-21T03:10:52;101572.38;;;9.21;100.00
29535;BME280;72082;52.650;8.116;2024-02-21T03:13:17;101570.69;;;9.22;100.00
29535;BME280;72082;52.650;8.116;2024-02-21T03:15:42;101559.56;;;9.21;100.00
29535;BME280;72082;52.650;8.116;2024-02-21T03:18:08;101570.69;;;9.22;100.00
29535;BME280;72082;52.650;8.116;2024-02-21T03:20:33;101559.59;;;9.23;100.00
29535;BME280;72082;52.650;8.116;2024-02-21T03:22:58;101574.94;;;9.23;100.00
29535;BME280;72082;52.650;8.116;2024-02-21T03:25:23;101571.56;;;9.24;100.00
29535;BME280;72082;52.650;8.116;2024-02-21T03:27:48;101566.44;;;9.25;100.00
29535;BME280;72082;52.650;8.116;2024-02-21T03:30:14;101572.44;;;9.26;100.00
29535;BME280;72082;52.650;8.116;2024-02-21T03:32:39;101546.81;;;9.23;100.00
29535;BME280;72082;52.650;8.116;2024-02-21T03:35:05;101560.34;;;9.16;100.00
29535;BME280;72082;52.650;8.116;2024-02-21T03:37:30;101561.03;;;9.04;100.00
29535;BME280;72082;52.650;8.116;2024-02-21T03:39:55;101550.56;;;8.92;100.00
29535;BME280;72082;52.650;8.116;2024-02-21T03:42:21;101563.19;;;8.82;100.00
29535;BME280;72082;52.650;8.116;2024-02-21T03:44:46;101554.50;;;8.72;100.00
29535;BME280;72082;52.650;8.116;2024-02-21T03:47:11;101559.53;;;8.67;100.00
29535;BME280;72082;52.650;8.116;2024-02-21T03:49:37;101559.47;;;8.64;100.00
29535;BME280;72082;52.650;8.116;2024-02-21T03:52:02;101577.38;;;8.64;100.00
29535;BME280;72082;52.650;8.116;2024-02-21T03:54:28;101569.69;;;8.64;100.00
29535;BME280;72082;52.650;8.116;2024-02-21T03:56:53;101564.66;;;8.67;100.00
29535;BME280;72082;52.650;8.116;2024-02-21T03:59:18;101566.34;;;8.68;100.00
29535;BME280;72082;52.650;8.116;2024-02-21T04:01:45;101561.31;;;8.72;100.00
29535;BME280;72082;52.650;8.116;2024-02-21T04:04:10;101547.69;;;8.73;100.00
29535;BME280;72082;52.650;8.116;2024-02-21T04:06:35;101555.38;;;8.74;100.00
29535;BME280;72082;52.650;8.116;2024-02-21T04:09:01;101552.88;;;8.76;100.00
29535;BME280;72082;52.650;8.116;2024-02-21T04:11:26;101556.31;;;8.78;100.00
29535;BME280;72082;52.650;8.116;2024-02-21T04:13:51;101560.56;;;8.79;100.00
29535;BME280;72082;52.650;8.116;2024-02-21T04:16:17;101556.38;;;8.81;100.00
29535;BME280;72082;52.650;8.116;2024-02-21T04:18:42;101558.06;;;8.82;100.00
29535;BME280;72082;52.650;8.116;2024-02-21T04:21:08;101547.03;;;8.83;100.00
29535;BME280;72082;52.650;8.116;2024-02-21T04:23:34;101568.34;;;8.85;100.00
29535;BME280;72082;52.650;8.116;2024-02-21T04:25:59;101559.00;;;8.85;100.00
29535;BME280;72082;52.650;8.116;2024-02-21T04:28:24;101563.22;;;8.85;100.00
29535;BME280;72082;52.650;8.116;2024-02-21T04:30:50;101553.06;;;8.86;100.00
29535;BME280;72082;52.650;8.116;2024-02-21T04:33:15;101545.38;;;8.86;100.00
29535;BME280;72082;52.650;8.116;2024-02-21T04:35:40;101551.34;;;8.87;100.00
29535;BME280;72082;52.650;8.116;2024-02-21T04:38:05;101557.31;;;8.87;100.00
29535;BME280;72082;52.650;8.116;2024-02-21T04:40:31;101565.84;;;8.86;100.00
29535;BME280;72082;52.650;8.116;2024-02-21T04:42:57;101550.50;;;8.86;100.00
29535;BME280;72082;52.650;8.116;2024-02-21T04:45:22;101544.53;;;8.86;100.00
29535;BME280;72082;52.650;8.116;2024-02-21T04:47:47;101548.75;;;8.85;100.00
29535;BME280;72082;52.650;8.116;2024-02-21T04:50:12;101541.09;;;8.84;100.00
29535;BME280;72082;52.650;8.116;2024-02-21T04:52:40;101535.91;;;8.81;100.00
29535;BME280;72082;52.650;8.116;2024-02-21T04:55:05;101536.72;;;8.78;100.00
29535;BME280;72082;52.650;8.116;2024-02-21T04:57:31;101534.94;;;8.74;100.00
29535;BME280;72082;52.650;8.116;2024-02-21T04:59:56;101535.75;;;8.72;100.00
29535;BME280;72082;52.650;8.116;2024-02-21T05:02:21;101530.59;;;8.68;100.00
29535;BME280;72082;52.650;8.116;2024-02-21T05:04:46;101530.59;;;8.68;100.00
29535;BME280;72082;52.650;8.116;2024-02-21T05:07:11;101529.75;;;8.68;100.00
29535;BME280;72082;52.650;8.116;2024-02-21T05:09:37;101530.56;;;8.67;100.00
29535;BME280;72082;52.650;8.116;2024-02-21T05:12:03;101527.16;;;8.66;100.00
29535;BME280;72082;52.650;8.116;2024-02-21T05:14:28;101536.50;;;8.66;100.00
29535;BME280;72082;52.650;8.116;2024-02-21T05:16:53;101513.50;;;8.66;100.00
29535;BME280;72082;52.650;8.116;2024-02-21T05:19:19;101518.63;;;8.66;100.00
29535;BME280;72082;52.650;8.116;2024-02-21T05:21:44;101518.63;;;8.66;100.00
29535;BME280;72082;52.650;8.116;2024-02-21T05:24:10;101511.81;;;8.66;100.00
29535;BME280;72082;52.650;8.116;2024-02-21T05:26:35;101513.50;;;8.66;100.00
29535;BME280;72082;52.650;8.116;2024-02-21T05:29:00;101511.81;;;8.66;100.00
29535;BME280;72082;52.650;8.116;2024-02-21T05:31:26;101510.13;;;8.67;100.00
29535;BME280;72082;52.650;8.116;2024-02-21T05:33:51;101501.66;;;8.68;100.00
29535;BME280;72082;52.650;8.116;2024-02-21T05:36:16;101500.78;;;8.69;100.00
29535;BME280;72082;52.650;8.116;2024-02-21T05:38:42;101496.53;;;8.69;100.00
29535;BME280;72082;52.650;8.116;2024-02-21T05:41:07;101489.69;;;8.68;100.00
29535;BME280;72082;52.650;8.116;2024-02-21T05:43:32;101501.66;;;8.69;100.00
29535;BME280;72082;52.650;8.116;2024-02-21T05:45:57;101497.41;;;8.72;100.00
29535;BME280;72082;52.650;8.116;2024-02-21T05:48:23;101481.28;;;8.73;100.00
29535;BME280;72082;52.650;8.116;2024-02-21T05:50:49;101493.25;;;8.77;100.00
29535;BME280;72082;52.650;8.116;2024-02-21T05:53:14;101491.63;;;8.80;100.00
29535;BME280;72082;52.650;8.116;2024-02-21T05:55:40;101495.91;;;8.81;100.00
29535;BME280;72082;52.650;8.116;2024-02-21T05:58:05;101491.63;;;8.82;100.00
29535;BME280;72082;52.650;8.116;2024-02-21T06:00:31;101483.13;;;8.83;100.00
29535;BME280;72082;52.650;8.116;2024-02-21T06:02:56;101485.69;;;8.84;100.00
29535;BME280;72082;52.650;8.116;2024-02-21T06:05:21;101480.59;;;8.84;100.00
29535;BME280;72082;52.650;8.116;2024-02-21T06:07:46;101473.78;;;8.85;100.00
29535;BME280;72082;52.650;8.116;2024-02-21T06:10:12;101482.31;;;8.85;100.00
29535;BME280;72082;52.650;8.116;2024-02-21T06:12:37;101479.78;;;8.87;100.00
29535;BME280;72082;52.650;8.116;2024-02-21T06:15:03;101491.72;;;8.88;100.00
29535;BME280;72082;52.650;8.116;2024-02-21T06:17:28;101486.63;;;8.89;100.00
29535;BME280;72082;52.650;8.116;2024-02-21T06:19:53;101478.13;;;8.89;100.00
29535;BME280;72082;52.650;8.116;2024-02-21T06:22:19;101488.34;;;8.90;100.00
29535;BME280;72082;52.650;8.116;2024-02-21T06:24:44;101488.34;;;8.90;100.00
29535;BME280;72082;52.650;8.116;2024-02-21T06:27:09;101483.25;;;8.92;100.00
29535;BME280;72082;52.650;8.116;2024-02-21T06:29:35;101482.44;;;8.93;100.00
29535;BME280;72082;52.650;8.116;2024-02-21T06:32:00;101473.09;;;8.93;100.00
29535;BME280;72082;52.650;8.116;2024-02-21T06:34:26;101479.88;;;8.94;100.00
29535;BME280;72082;52.650;8.116;2024-02-21T06:36:51;101479.94;;;8.96;100.00
29535;BME280;72082;52.650;8.116;2024-02-21T06:39:16;101472.25;;;8.96;100.00
29535;BME280;72082;52.650;8.116;2024-02-21T06:41:42;101459.47;;;8.96;100.00
29535;BME280;72082;52.650;8.116;2024-02-21T06:44:07;101462.06;;;8.97;100.00
29535;BME280;72082;52.650;8.116;2024-02-21T06:46:33;101442.47;;;8.98;100.00
29535;BME280;72082;52.650;8.116;2024-02-21T06:48:58;101439.09;;;8.99;100.00
29535;BME280;72082;52.650;8.116;2024-02-21T06:51:24;101443.34;;;9.00;100.00
29535;BME280;72082;52.650;8.116;2024-02-21T06:53:49;101440.78;;;9.00;100.00
29535;BME280;72082;52.650;8.116;2024-02-21T06:56:15;101433.13;;;9.00;100.00
29535;BME280;72082;52.650;8.116;2024-02-21T06:58:40;101457.84;;;9.01;100.00
29535;BME280;72082;52.650;8.116;2024-02-21T07:01:06;101444.25;;;9.02;100.00
29535;BME280;72082;52.650;8.116;2024-02-21T07:03:31;101457.91;;;9.04;100.00
29535;BME280;72082;52.650;8.116;2024-02-21T07:05:56;101451.09;;;9.06;100.00
29535;BME280;72082;52.650;8.116;2024-02-21T07:08:21;101453.66;;;9.06;100.00
29535;BME280;72082;52.650;8.116;2024-02-21T07:10:47;101452.84;;;9.07;100.00
29535;BME280;72082;52.650;8.116;2024-02-21T07:13:12;101456.28;;;9.09;100.00
29535;BME280;72082;52.650;8.116;2024-02-21T07:15:37;101452.03;;;9.09;100.00
29535;BME280;72082;52.650;8.116;2024-02-21T07:18:03;101459.69;;;9.11;100.00
29535;BME280;72082;52.650;8.116;2024-02-21T07:20:28;101461.44;;;9.12;100.00
29535;BME280;72082;52.650;8.116;2024-02-21T07:22:53;101465.72;;;9.14;100.00
29535;BME280;72082;52.650;8.116;2024-02-21T07:25:19;101475.94;;;9.14;100.00
29535;BME280;72082;52.650;8.116;2024-02-21T07:27:44;101474.25;;;9.15;100.00
29535;BME280;72082;52.650;8.116;2024-02-21T07:30:10;101477.66;;;9.15;100.00
29535;BME280;72082;52.650;8.116;2024-02-21T07:32:35;101484.50;;;9.16;100.00
29535;BME280;72082;52.650;8.116;2024-02-21T07:35:00;101480.25;;;9.17;100.00
29535;BME280;72082;52.650;8.116;2024-02-21T07:37:25;101472.59;;;9.17;100.00
29535;BME280;72082;52.650;8.116;2024-02-21T07:39:51;101472.59;;;9.18;100.00
29535;BME280;72082;52.650;8.116;2024-02-21T07:42:16;101470.91;;;9.19;100.00
29535;BME280;72082;52.650;8.116;2024-02-21T07:44:41;101476.00;;;9.19;100.00
29535;BME280;72082;52.650;8.116;2024-02-21T07:47:06;101473.47;;;9.20;100.00
29535;BME280;72082;52.650;8.116;2024-02-21T07:49:32;101465.78;;;9.20;100.00
29535;BME280;72082;52.650;8.116;2024-02-21T07:51:57;101471.78;;;9.21;100.00
29535;BME280;72082;52.650;8.116;2024-02-21T07:54:22;101482.00;;;9.21;100.00
29535;BME280;72082;52.650;8.116;2024-02-21T07:56:47;101467.53;;;9.21;100.00
29535;BME280;72082;52.650;8.116;2024-02-21T07:59:13;101463.28;;;9.23;100.00
29535;BME280;72082;52.650;8.116;2024-02-21T08:01:38;101457.31;;;9.23;100.00
29535;BME280;72082;52.650;8.116;2024-02-21T08:04:03;101457.31;;;9.23;100.00
29535;BME280;72082;52.650;8.116;2024-02-21T08:06:28;101455.66;;;9.25;100.00
29535;BME280;72082;52.650;8.116;2024-02-21T08:08:54;101443.69;;;9.24;100.00
29535;BME280;72082;52.650;8.116;2024-02-21T08:11:19;101436.88;;;9.24;100.00
29535;BME280;72082;52.650;8.116;2024-02-21T08:13:44;101447.97;;;9.25;100.00
29535;BME280;72082;52.650;8.116;2024-02-21T08:16:09;101438.59;;;9.25;100.00
29535;BME280;72082;52.650;8.116;2024-02-21T08:18:34;101444.56;;;9.26;100.00
29535;BME280;72082;52.650;8.116;2024-02-21T08:21:00;101442.00;;;9.26;100.00
29535;BME280;72082;52.650;8.116;2024-02-21T08:23:25;101436.91;;;9.26;100.00
29535;BME280;72082;52.650;8.116;2024-02-21T08:25:50;101448.00;;;9.26;100.00
29535;BME280;72082;52.650;8.116;2024-02-21T08:28:15;101436.91;;;9.26;100.00
29535;BME280;72082;52.650;8.116;2024-02-21T08:30:41;101430.09;;;9.26;100.00
29535;BME280;72082;52.650;8.116;2024-02-21T08:33:07;101431.81;;;9.27;100.00
29535;BME280;72082;52.650;8.116;2024-02-21T08:35:32;101425.00;;;9.28;100.00
29535;BME280;72082;52.650;8.116;2024-02-21T08:37:57;101420.78;;;9.30;100.00
29535;BME280;72082;52.650;8.116;2024-02-21T08:40:22;101412.22;;;9.31;100.00
29535;BME280;72082;52.650;8.116;2024-02-21T08:42:48;101413.97;;;9.32;100.00
29535;BME280;72082;52.650;8.116;2024-02-21T08:45:13;101407.16;;;9.34;100.00
29535;BME280;72082;52.650;8.116;2024-02-21T08:47:41;101402.91;;;9.35;100.00
29535;BME280;72082;52.650;8.116;2024-02-21T08:50:08;101402.91;;;9.36;100.00
29535;BME280;72082;52.650;8.116;2024-02-21T08:52:33;101403.81;;;9.38;100.00
29535;BME280;72082;52.650;8.116;2024-02-21T08:54:58;101399.56;;;9.40;100.00
29535;BME280;72082;52.650;8.116;2024-02-21T08:57:23;101408.13;;;9.41;100.00
29535;BME280;72082;52.650;8.116;2024-02-21T08:59:49;101398.72;;;9.41;100.00
29535;BME280;72082;52.650;8.116;2024-02-21T09:02:14;101400.44;;;9.41;100.00
29535;BME280;72082;52.650;8.116;2024-02-21T09:04:40;101414.94;;;9.42;100.00
29535;BME280;72082;52.650;8.116;2024-02-21T09:07:05;101402.19;;;9.43;100.00
29535;BME280;72082;52.650;8.116;2024-02-21T09:09:30;101398.75;;;9.43;100.00
29535;BME280;72082;52.650;8.116;2024-02-21T09:11:55;101395.38;;;9.45;100.00
29535;BME280;72082;52.650;8.116;2024-02-21T09:14:20;101386.00;;;9.47;100.00
29535;BME280;72082;52.650;8.116;2024-02-21T09:48:22;101317.72;;;10.29;100.00
29535;BME280;72082;52.650;8.116;2024-02-21T09:50:19;101307.53;;;10.38;100.00
29535;BME280;72082;52.650;8.116;2024-02-21T09:52:44;101310.13;;;10.45;100.00
29535;BME280;72082;52.650;8.116;2024-02-21T09:55:10;101293.09;;;10.50;100.00
29535;BME280;72082;52.650;8.116;2024-02-21T09:57:36;101305.94;;;10.57;100.00
29535;BME280;72082;52.650;8.116;2024-02-21T10:00:02;101305.94;;;10.61;100.00
29535;BME280;72082;52.650;8.116;2024-02-21T10:02:28;101319.66;;;10.65;100.00
29535;BME280;72082;52.650;8.116;2024-02-21T10:04:54;101302.56;;;10.62;100.00
29535;BME280;72082;52.650;8.116;2024-02-21T10:07:19;101307.66;;;10.59;100.00
29535;BME280;72082;52.650;8.116;2024-02-21T10:09:45;101307.66;;;10.59;100.00
29535;BME280;72082;52.650;8.116;2024-02-21T10:12:11;101303.41;;;10.58;100.00
29535;BME280;72082;52.650;8.116;2024-02-21T10:14:37;101304.25;;;10.56;100.00
29535;BME280;72082;52.650;8.116;2024-02-21T10:17:03;101304.19;;;10.51;100.00
29535;BME280;72082;52.650;8.116;2024-02-21T10:19:28;101305.88;;;10.46;100.00
29535;BME280;72082;52.650;8.116;2024-02-21T10:22:09;101309.25;;;10.39;100.00
29535;BME280;72082;52.650;8.116;2024-02-21T10:24:35;101316.88;;;10.31;100.00
29535;BME280;72082;52.650;8.116;2024-02-21T10:27:05;101299.78;;;10.29;100.00
29535;BME280;72082;52.650;8.116;2024-02-21T10:29:31;101305.75;;;10.28;100.00
29535;BME280;72082;52.650;8.116;2024-02-21T10:34:31;101298.09;;;10.35;100.00
29535;BME280;72082;52.650;8.116;2024-02-21T10:37:03;101292.19;;;10.42;100.00
29535;BME280;72082;52.650;8.116;2024-02-21T10:39:32;101282.84;;;10.52;100.00
29535;BME280;72082;52.650;8.116;2024-02-21T10:42:00;101278.63;;;10.62;100.00
29535;BME280;72082;52.650;8.116;2024-02-21T10:44:28;101284.66;;;10.68;100.00
29535;BME280;72082;52.650;8.116;2024-02-21T10:46:55;101275.28;;;10.73;100.00
29535;BME280;72082;52.650;8.116;2024-02-21T10:49:23;101278.72;;;10.78;100.00
29535;BME280;72082;52.650;8.116;2024-02-21T10:51:49;101263.38;;;10.84;100.00
29535;BME280;72082;52.650;8.116;2024-02-21T10:56:49;101256.56;;;10.95;100.00
29535;BME280;72082;52.650;8.116;2024-02-21T10:59:17;101248.91;;;11.00;100.00
29535;BME280;72082;52.650;8.116;2024-02-21T11:01:42;101244.63;;;11.03;100.00
29535;BME280;72082;52.650;8.116;2024-02-21T11:04:10;101246.34;;;11.06;100.00
29535;BME280;72082;52.650;8.116;2024-02-21T11:06:37;101230.09;;;11.05;100.00
29535;BME280;72082;52.650;8.116;2024-02-21T11:09:08;101249.75;;;11.06;100.00
29535;BME280;72082;52.650;8.116;2024-02-21T11:14:18;101207.03;;;11.04;100.00
29535;BME280;72082;52.650;8.116;2024-02-21T11:16:44;101223.25;;;11.03;100.00
29535;BME280;72082;52.650;8.116;2024-02-21T11:19:19;101199.31;;;11.04;100.00
29535;BME280;72082;52.650;8.116;2024-02-21T11:21:44;101192.50;;;11.07;100.00
29535;BME280;72082;52.650;8.116;2024-02-21T11:24:09;101184.81;;;11.10;100.00
29535;BME280;72082;52.650;8.116;2024-02-21T11:26:37;101182.25;;;11.07;100.00
29535;BME280;72082;52.650;8.116;2024-02-21T11:29:02;101179.69;;;11.07;100.00
29535;BME280;72082;52.650;8.116;2024-02-21T11:31:41;101178.81;;;11.05;100.00
29535;BME280;72082;52.650;8.116;2024-02-21T11:34:10;101183.09;;;11.06;100.00
29535;BME280;72082;52.650;8.116;2024-02-21T11:36:39;101174.53;;;11.04;100.00
29535;BME280;72082;52.650;8.116;2024-02-21T11:39:11;101152.31;;;11.05;100.00
29535;BME280;72082;52.650;8.116;2024-02-21T11:41:36;101161.72;;;11.07;100.00
29535;BME280;72082;52.650;8.116;2024-02-21T11:44:01;101159.16;;;11.07;100.00
29535;BME280;72082;52.650;8.116;2024-02-21T11:46:26;101154.88;;;11.05;100.00
29535;BME280;72082;52.650;8.116;2024-02-21T11:48:52;101148.88;;;11.01;100.00
29535;BME280;72082;52.650;8.116;2024-02-21T11:51:21;101150.59;;;10.99;100.00
29535;BME280;72082;52.650;8.116;2024-02-21T11:53:47;101131.81;;;10.97;100.00
29535;BME280;72082;52.650;8.116;2024-02-21T11:56:13;101141.19;;;10.95;100.00
29535;BME280;72082;52.650;8.116;2024-02-21T11:58:39;101136.94;;;10.97;100.00
29535;BME280;72082;52.650;8.116;2024-02-21T12:01:04;101121.53;;;10.94;100.00
29535;BME280;72082;52.650;8.116;2024-02-21T12:03:29;101114.69;;;10.96;100.00
29535;BME280;72082;52.650;8.116;2024-02-21T12:05:54;101113.84;;;10.97;100.00
29535;BME280;72082;52.650;8.116;2024-02-21T12:08:20;101143.75;;;11.01;100.00
29535;BME280;72082;52.650;8.116;2024-02-21T12:10:45;101126.66;;;11.00;100.00
29535;BME280;72082;52.650;8.116;2024-02-21T12:13:11;101117.25;;;11.01;100.00
29535;BME280;72082;52.650;8.116;2024-02-21T12:15:38;101107.84;;;11.03;100.00
29535;BME280;72082;52.650;8.116;2024-02-21T12:18:04;101095.91;;;11.05;100.00
29535;BME280;72082;52.650;8.116;2024-02-21T12:20:30;101093.31;;;11.08;100.00
29535;BME280;72082;52.650;8.116;2024-02-21T12:22:55;101081.34;;;11.11;100.00
29535;BME280;72082;52.650;8.116;2024-02-21T12:25:22;101092.50;;;11.10;100.00
29535;BME280;72082;52.650;8.116;2024-02-21T12:27:48;101075.38;;;11.06;100.00
29535;BME280;72082;52.650;8.116;2024-02-21T12:30:13;101076.25;;;11.02;100.00
29535;BME280;72082;52.650;8.116;2024-02-21T12:32:38;101061.69;;;10.98;100.00
29535;BME280;72082;52.650;8.116;2024-02-21T12:35:04;101049.72;;;10.96;100.00
29535;BME280;72082;52.650;8.116;2024-02-21T12:37:29;101045.47;;;10.95;100.00
29535;BME280;72082;52.650;8.116;2024-02-21T12:39:55;101029.22;;;10.94;100.00
29535;BME280;72082;52.650;8.116;2024-02-21T12:42:20;101039.50;;;10.94;100.00
29535;BME280;72082;52.650;8.116;2024-02-21T12:44:45;101030.06;;;10.93;100.00
29535;BME280;72082;52.650;8.116;2024-02-21T12:47:11;101013.00;;;10.86;100.00
29535;BME280;72082;52.650;8.116;2024-02-21T12:49:36;101016.41;;;10.84;100.00
29535;BME280;72082;52.650;8.116;2024-02-21T12:52:01;101001.03;;;10.81;100.00
29535;BME280;72082;52.650;8.116;2024-02-21T12:54:27;101000.19;;;10.82;100.00
29535;BME280;72082;52.650;8.116;2024-02-21T12:56:52;100985.63;;;10.82;100.00
29535;BME280;72082;52.650;8.116;2024-02-21T12:59:17;100971.97;;;10.83;100.00
29535;BME280;72082;52.650;8.116;2024-02-21T13:01:42;100983.09;;;10.84;100.00
29535;BME280;72082;52.650;8.116;2024-02-21T13:04:08;100958.28;;;10.83;100.00
29535;BME280;72082;52.650;8.116;2024-02-21T13:06:33;100962.56;;;10.82;100.00
29535;BME280;72082;52.650;8.116;2024-02-21T13:08:58;100941.22;;;10.82;100.00
29535;BME280;72082;52.650;8.116;2024-02-21T13:11:23;100951.47;;;10.80;100.00
29535;BME280;72082;52.650;8.116;2024-02-21T13:13:48;100954.88;;;10.78;100.00
29535;BME280;72082;52.650;8.116;2024-02-21T13:16:14;100947.22;;;10.76;100.00
29535;BME280;72082;52.650;8.116;2024-02-21T13:18:39;100941.22;;;10.73;100.00